Terminal Aerodrome Forecast
Issued by NWS

Home | Current Version | Previous Version | Graphics & Text | Print | Product List | Glossary On
Versions: 1 2 3 4 5 6 7 8 9 10 11 12 13 14
000
FTUS43 KGRB 261700 RRA
TAFMTW
TAF
KMTW 261741Z 2618/2718 VRB03KT P6SM SCT120
     FM262200 16003KT 5SM BR BKN020 OVC060
     FM270300 35004KT 6SM BR OVC018
     FM271000 02005KT 5SM -SN BR BKN015
     FM271300 03005KT 2SM -RASN BR OVC009=

USA.gov is the U.S. government's official web portal to all federal, state and local government web resources and services.